Time;durP1;ratioP1;P1;durP2;ratioP2;P2;SDS_P1;SDS_P2;PMS_P1;PMS_P2;Temp;Humidity;BMP_temperature;BMP_pressure;BME280_temperature;BME280_humidity;BME280_pressure;Samples;Min_cycle;Max_cycle;Signal;HPM_P1;HPM_P2
2021/04/24 00:01:42;;;;;;;11.48;6.50;;;7.40;99.90;;;;;;4379312;32;20081;-61
2021/04/24 00:04:08;;;;;;;10.80;6.30;;;7.30;99.90;;;;;;4379388;32;20145;-62
2021/04/24 00:06:34;;;;;;;8.90;5.72;;;7.30;99.90;;;;;;4379636;32;20076;-61
2021/04/24 00:09:00;;;;;;;12.70;5.82;;;7.30;99.90;;;;;;4392078;32;20066;-60
2021/04/24 00:11:27;;;;;;;9.52;5.78;;;7.30;99.90;;;;;;4391834;32;20077;-59
2021/04/24 00:13:54;;;;;;;8.05;4.25;;;7.30;99.90;;;;;;4364246;32;20505;-61
2021/04/24 00:16:20;;;;;;;9.15;4.35;;;7.20;99.90;;;;;;4352308;32;20078;-60
2021/04/24 00:18:46;;;;;;;7.55;4.20;;;7.20;99.90;;;;;;4376793;32;20074;-60
2021/04/24 00:21:13;;;;;;;8.48;4.72;;;7.10;99.90;;;;;;4364052;32;20081;-61
2021/04/24 00:23:39;;;;;;;5.32;3.90;;;7.20;99.90;;;;;;4351505;32;20527;-61
2021/04/24 00:26:05;;;;;;;7.53;3.95;;;7.10;99.90;;;;;;4364157;32;20074;-61
2021/04/24 00:28:31;;;;;;;6.35;4.10;;;7.10;99.90;;;;;;4376727;32;20081;-60
2021/04/24 00:30:57;;;;;;;7.62;4.72;;;7.10;99.90;;;;;;4352534;32;20066;-61
2021/04/24 00:33:24;;;;;;;5.78;3.75;;;7.10;99.90;;;;;;4376939;32;20082;-60
2021/04/24 00:35:52;;;;;;;5.78;4.03;;;7.10;99.90;;;;;;4364081;32;20058;-61
2021/04/24 00:38:18;;;;;;;5.15;3.70;;;7.00;99.90;;;;;;4351791;32;20061;-60
2021/04/24 00:40:45;;;;;;;5.60;3.72;;;6.90;99.90;;;;;;4339234;32;20085;-60
2021/04/24 00:43:14;;;;;;;6.03;3.90;;;6.90;99.90;;;;;;4339350;32;20062;-60
2021/04/24 00:45:40;;;;;;;6.35;3.90;;;6.90;99.90;;;;;;4351402;32;20149;-60
2021/04/24 00:48:07;;;;;;;6.95;3.90;;;7.00;99.90;;;;;;4351669;32;20182;-60
2021/04/24 00:50:35;;;;;;;6.80;3.95;;;7.00;99.90;;;;;;4363487;32;20077;-60
2021/04/24 00:53:02;;;;;;;7.00;3.12;;;6.90;99.90;;;;;;4376155;32;20549;-62
2021/04/24 00:55:28;;;;;;;7.87;3.60;;;7.00;99.90;;;;;;4363961;32;20519;-60
2021/04/24 00:57:54;;;;;;;6.32;3.90;;;7.00;99.90;;;;;;4372466;32;20481;-61
2021/04/24 01:00:24;;;;;;;6.05;3.60;;;7.00;99.90;;;;;;4381834;32;20104;-60
2021/04/24 01:02:51;;;;;;;6.90;3.47;;;7.00;99.90;;;;;;4383645;32;20512;-61
2021/04/24 01:05:21;;;;;;;6.03;3.35;;;7.00;99.90;;;;;;4391591;32;20085;-60
2021/04/24 01:07:48;;;;;;;5.72;3.67;;;7.00;99.90;;;;;;4390673;32;20172;-61
2021/04/24 01:10:14;;;;;;;6.45;3.40;;;6.90;99.90;;;;;;4378500;32;20065;-61
2021/04/24 01:12:42;;;;;;;6.47;3.50;;;6.90;99.90;;;;;;4378940;32;20062;-61
2021/04/24 01:15:10;;;;;;;6.22;3.12;;;6.90;99.90;;;;;;4378546;32;20082;-60
2021/04/24 01:17:36;;;;;;;8.13;3.50;;;6.80;99.90;;;;;;4378474;32;20489;-60
2021/04/24 01:20:04;;;;;;;4.90;3.40;;;6.80;99.90;;;;;;4366094;32;20638;-61
2021/04/24 01:22:31;;;;;;;6.60;3.70;;;6.80;99.90;;;;;;4378428;32;20072;-60
2021/04/24 01:24:57;;;;;;;7.60;3.85;;;6.80;99.90;;;;;;4365859;32;20516;-61
2021/04/24 01:27:23;;;;;;;5.87;3.37;;;6.70;99.90;;;;;;4378566;32;20096;-60
2021/04/24 01:29:49;;;;;;;6.22;3.45;;;6.80;99.90;;;;;;4378192;32;20089;-60
2021/04/24 01:32:15;;;;;;;4.78;3.40;;;6.70;99.90;;;;;;4390663;32;20167;-62
2021/04/24 01:34:41;;;;;;;5.35;3.30;;;6.70;99.90;;;;;;4392223;32;20441;-61
2021/04/24 01:37:08;;;;;;;6.20;3.33;;;6.80;99.90;;;;;;4391270;32;20073;-60
2021/04/24 01:39:34;;;;;;;6.40;3.42;;;6.80;99.90;;;;;;4390481;32;20077;-60
2021/04/24 01:42:00;;;;;;;5.78;3.50;;;6.70;99.90;;;;;;4392343;32;20085;-60
2021/04/24 01:44:26;;;;;;;5.25;3.08;;;6.80;99.90;;;;;;4391352;32;20545;-61
2021/04/24 01:46:52;;;;;;;5.40;2.83;;;6.80;99.90;;;;;;4365946;32;20058;-61
2021/04/24 01:49:19;;;;;;;5.30;3.62;;;7.00;99.90;;;;;;4378062;32;20137;-61
2021/04/24 01:51:45;;;;;;;6.25;3.55;;;6.90;99.90;;;;;;4377976;32;20066;-60
2021/04/24 01:54:11;;;;;;;4.55;2.83;;;6.90;99.90;;;;;;4378293;32;20149;-60
2021/04/24 01:56:57;;;;;;;4.37;2.65;;;6.90;99.90;;;;;;4378656;32;20158;-60
2021/04/24 01:59:27;;;;;;;5.70;2.80;;;7.00;99.90;;;;;;4378413;32;20609;-62
2021/04/24 02:01:55;;;;;;;4.75;2.65;;;7.00;99.90;;;;;;4378975;32;20090;-60
2021/04/24 02:04:23;;;;;;;6.30;3.40;;;7.10;99.90;;;;;;4377683;32;20065;-60
2021/04/24 02:06:49;;;;;;;8.65;3.22;;;7.10;99.90;;;;;;4390760;32;20182;-62
2021/04/24 02:09:18;;;;;;;6.28;3.40;;;7.10;99.90;;;;;;4365152;32;20065;-61
2021/04/24 02:12:05;;;;;;;5.50;3.60;;;7.20;99.90;;;;;;4390153;32;20098;-61
2021/04/24 02:14:44;;;;;;;6.47;3.80;;;7.20;99.90;;;;;;4380452;32;20073;-61
2021/04/24 02:17:24;;;;;;;5.05;3.20;;;7.20;99.90;;;;;;4351403;32;20450;-62
2021/04/24 02:19:51;;;;;;;5.62;3.42;;;7.30;99.90;;;;;;4363086;32;20066;-61
2021/04/24 02:22:17;;;;;;;7.20;3.83;;;7.20;99.90;;;;;;4362782;32;20090;-61
2021/04/24 02:24:53;;;;;;;8.63;5.12;;;7.20;99.90;;;;;;4363351;32;20062;-60
2021/04/24 02:27:19;;;;;;;6.22;3.72;;;7.20;99.90;;;;;;4363235;32;20081;-59
2021/04/24 02:29:46;;;;;;;11.77;3.95;;;7.40;99.90;;;;;;4362753;32;20158;-61
2021/04/24 02:32:13;;;;;;;6.10;3.78;;;7.30;99.90;;;;;;4350499;32;20450;-61
2021/04/24 02:34:41;;;;;;;5.53;3.97;;;7.30;99.90;;;;;;4364303;32;20521;-60
2021/04/24 02:37:08;;;;;;;7.03;3.87;;;7.20;99.90;;;;;;4372948;32;20157;-63
2021/04/24 02:39:38;;;;;;;6.25;3.50;;;7.10;99.90;;;;;;4354973;32;20078;-60
2021/04/24 02:42:06;;;;;;;5.60;3.40;;;7.30;99.90;;;;;;4363052;32;20082;-60
2021/04/24 02:44:33;;;;;;;5.03;3.50;;;7.40;99.90;;;;;;4362291;32;20067;-61
2021/04/24 02:46:59;;;;;;;5.65;3.50;;;7.30;99.90;;;;;;4362416;32;20097;-62
2021/04/24 02:49:26;;;;;;;3.95;3.00;;;7.30;99.90;;;;;;4363069;32;20148;-60
2021/04/24 02:51:53;;;;;;;6.40;3.15;;;7.30;99.90;;;;;;4362610;32;20094;-60
2021/04/24 02:54:20;;;;;;;4.05;3.03;;;7.30;99.90;;;;;;4362144;32;20093;-60
2021/04/24 02:56:47;;;;;;;5.35;3.40;;;7.40;99.90;;;;;;4364007;32;20066;-60
2021/04/24 02:59:14;;;;;;;4.97;3.17;;;7.40;99.90;;;;;;4377489;32;20587;-61
2021/04/24 03:01:41;;;;;;;5.47;3.00;;;7.50;99.90;;;;;;4377128;32;20086;-60
2021/04/24 03:04:07;;;;;;;6.97;3.67;;;7.40;99.90;;;;;;4389803;32;20583;-60
2021/04/24 03:06:33;;;;;;;4.78;3.20;;;7.50;99.90;;;;;;4389746;32;20075;-60
2021/04/24 03:09:01;;;;;;;3.85;3.00;;;7.30;99.90;;;;;;4377415;32;20069;-60
2021/04/24 03:11:28;;;;;;;7.12;3.10;;;7.40;99.90;;;;;;4401886;32;20078;-61
2021/04/24 03:13:55;;;;;;;5.03;3.08;;;7.40;99.90;;;;;;4371452;32;20521;-62
2021/04/24 03:16:21;;;;;;;5.32;3.25;;;7.50;99.90;;;;;;4362557;32;20109;-60
2021/04/24 03:18:48;;;;;;;5.28;3.30;;;7.50;99.90;;;;;;4362727;32;20149;-62
2021/04/24 03:21:14;;;;;;;4.53;3.10;;;7.30;99.90;;;;;;4349923;32;20077;-60
2021/04/24 03:23:40;;;;;;;7.25;3.45;;;7.50;99.90;;;;;;4362139;32;20515;-61
2021/04/24 03:26:06;;;;;;;4.85;3.40;;;7.50;99.90;;;;;;4374492;32;20489;-61
2021/04/24 03:28:33;;;;;;;7.70;4.05;;;7.50;99.90;;;;;;4374492;32;20101;-60
2021/04/24 03:30:59;;;;;;;6.30;3.50;;;7.50;99.90;;;;;;4363301;32;20160;-61
2021/04/24 03:33:26;;;;;;;5.50;3.20;;;7.60;99.90;;;;;;4352619;32;20087;-60
2021/04/24 03:35:52;;;;;;;5.93;3.30;;;7.60;99.90;;;;;;4377488;32;20078;-60
2021/04/24 03:38:18;;;;;;;9.40;3.65;;;7.50;99.90;;;;;;4377142;32;20061;-61
2021/04/24 03:40:45;;;;;;;5.22;3.40;;;7.60;99.90;;;;;;4352335;32;20086;-61
2021/04/24 03:43:11;;;;;;;5.65;3.90;;;7.50;99.90;;;;;;4377151;32;20508;-62
2021/04/24 03:45:37;;;;;;;5.75;3.42;;;7.60;99.90;;;;;;4351918;32;20066;-61
2021/04/24 03:48:04;;;;;;;5.53;3.28;;;7.60;99.90;;;;;;4365163;32;20073;-61
2021/04/24 03:50:31;;;;;;;6.78;3.97;;;7.80;99.90;;;;;;4353049;32;20528;-61
2021/04/24 03:52:57;;;;;;;5.18;3.35;;;7.80;99.90;;;;;;4339846;32;20070;-60
2021/04/24 03:55:24;;;;;;;6.10;3.28;;;7.80;99.90;;;;;;4364720;32;20243;-61
2021/04/24 03:57:50;;;;;;;5.30;3.30;;;8.00;99.90;;;;;;4373355;32;20159;-60
2021/04/24 04:00:18;;;;;;;4.50;3.30;;;8.10;99.90;;;;;;4380020;32;20171;-61
2021/04/24 04:02:56;;;;;;;6.95;3.85;;;8.10;99.90;;;;;;4392234;32;20078;-62
2021/04/24 04:05:26;;;;;;;7.25;3.42;;;8.20;99.90;;;;;;4392078;32;20528;-62
2021/04/24 04:07:54;;;;;;;4.72;3.47;;;8.10;99.90;;;;;;4367589;32;20096;-62
2021/04/24 04:10:20;;;;;;;7.47;3.67;;;8.30;99.90;;;;;;4379365;32;20519;-60
2021/04/24 04:12:47;;;;;;;7.68;3.75;;;8.60;99.90;;;;;;4379349;32;20155;-62
2021/04/24 04:15:15;;;;;;;7.18;3.62;;;8.60;99.90;;;;;;4379218;32;20562;-62
2021/04/24 04:17:43;;;;;;;5.90;3.67;;;8.70;99.90;;;;;;4379642;32;20077;-61
2021/04/24 04:20:11;;;;;;;4.95;3.58;;;8.70;99.90;;;;;;4379267;32;20078;-60
2021/04/24 04:22:37;;;;;;;8.07;3.67;;;9.00;99.90;;;;;;4379359;32;20091;-60
2021/04/24 04:25:05;;;;;;;6.00;3.83;;;8.60;99.90;;;;;;4378887;32;20097;-62
2021/04/24 04:27:32;;;;;;;7.60;4.00;;;8.90;99.90;;;;;;4391516;32;20073;-61
2021/04/24 04:29:59;;;;;;;6.30;4.05;;;8.70;99.90;;;;;;4366476;32;20155;-61
2021/04/24 04:32:25;;;;;;;6.75;4.47;;;8.80;99.90;;;;;;4378979;32;20074;-61
2021/04/24 04:34:51;;;;;;;6.55;4.10;;;8.80;99.90;;;;;;4366298;32;20156;-61
2021/04/24 04:37:18;;;;;;;8.07;4.05;;;9.00;99.90;;;;;;4391598;32;20078;-61
2021/04/24 04:39:44;;;;;;;8.93;4.22;;;9.00;99.90;;;;;;4391776;32;20112;-60
2021/04/24 04:42:10;;;;;;;6.07;4.25;;;9.20;99.90;;;;;;4378885;32;20164;-61
2021/04/24 04:44:37;;;;;;;8.27;4.72;;;8.90;99.90;;;;;;4392696;32;20062;-61
2021/04/24 04:47:03;;;;;;;8.15;4.55;;;8.60;99.90;;;;;;4392076;32;20070;-60
2021/04/24 04:49:30;;;;;;;6.95;4.55;;;8.60;99.90;;;;;;4378183;32;20073;-60
2021/04/24 04:51:56;;;;;;;5.43;3.97;;;8.90;99.90;;;;;;4392458;32;20145;-62
2021/04/24 04:54:22;;;;;;;6.85;4.80;;;8.90;99.90;;;;;;4391073;32;20077;-60
2021/04/24 04:56:48;;;;;;;7.53;4.65;;;8.80;99.90;;;;;;4392587;32;20181;-61
2021/04/24 04:59:14;;;;;;;7.95;4.10;;;8.70;99.90;;;;;;4391453;32;20070;-61
2021/04/24 05:01:40;;;;;;;5.87;4.25;;;8.80;99.90;;;;;;4403854;32;20510;-60
2021/04/24 05:04:06;;;;;;;5.60;4.03;;;8.90;99.90;;;;;;4392462;32;20521;-61
2021/04/24 05:06:33;;;;;;;7.22;3.97;;;9.00;99.90;;;;;;4392174;32;20073;-60
2021/04/24 05:09:00;;;;;;;5.87;4.20;;;9.20;99.90;;;;;;4366296;32;20066;-61
2021/04/24 05:11:26;;;;;;;6.32;4.32;;;9.20;99.90;;;;;;4366071;32;20086;-61
2021/04/24 05:13:53;;;;;;;7.00;4.50;;;9.10;99.90;;;;;;4385149;32;20129;-62
2021/04/24 05:16:19;;;;;;;6.65;4.05;;;9.50;99.90;;;;;;4375823;32;20076;-61
2021/04/24 05:18:45;;;;;;;5.75;4.07;;;10.10;99.90;;;;;;4375952;32;20082;-61
2021/04/24 05:21:11;;;;;;;5.22;3.80;;;10.00;99.90;;;;;;4375433;32;20147;-62
2021/04/24 05:23:37;;;;;;;5.22;2.90;;;9.70;99.90;;;;;;4376387;32;20066;-60
2021/04/24 05:26:03;;;;;;;4.80;3.25;;;9.90;99.90;;;;;;4363600;32;20069;-62
2021/04/24 05:28:30;;;;;;;4.53;3.37;;;9.90;99.90;;;;;;4376661;32;20073;-61
2021/04/24 05:30:56;;;;;;;4.30;3.22;;;10.00;99.90;;;;;;4349446;32;20422;-62
2021/04/24 05:33:22;;;;;;;9.45;3.85;;;9.70;99.90;;;;;;4362888;32;20077;-61
2021/04/24 05:35:48;;;;;;;8.35;3.87;;;9.60;99.90;;;;;;4362750;32;20085;-61
2021/04/24 05:38:15;;;;;;;6.45;3.95;;;9.70;99.90;;;;;;4363262;32;20074;-60
2021/04/24 05:40:41;;;;;;;5.70;3.53;;;9.60;99.90;;;;;;4375788;32;20441;-62
2021/04/24 05:43:07;;;;;;;6.10;3.97;;;9.40;99.90;;;;;;4377100;32;20145;-62
2021/04/24 05:45:33;;;;;;;6.55;3.85;;;9.20;99.90;;;;;;4374718;32;20081;-60
2021/04/24 05:47:59;;;;;;;8.00;3.90;;;9.00;99.90;;;;;;4362615;32;20081;-61
2021/04/24 05:50:26;;;;;;;4.65;3.33;;;9.30;99.90;;;;;;4362992;32;20062;-60
2021/04/24 05:52:52;;;;;;;4.12;3.12;;;9.40;99.90;;;;;;4363099;32;20067;-61
2021/04/24 05:55:18;;;;;;;8.02;3.67;;;9.20;99.90;;;;;;4349918;32;20109;-61
2021/04/24 05:57:45;;;;;;;4.30;3.17;;;9.30;99.90;;;;;;4383162;32;20074;-61
2021/04/24 06:00:17;;;;;;;4.80;2.95;;;9.20;99.90;;;;;;4378047;32;20076;-60
2021/04/24 06:02:43;;;;;;;8.05;4.72;;;9.40;99.90;;;;;;4390715;32;20065;-62
2021/04/24 06:05:11;;;;;;;4.60;2.85;;;9.40;99.90;;;;;;4377998;32;20062;-61
2021/04/24 06:07:38;;;;;;;5.32;3.35;;;9.50;99.90;;;;;;4390957;32;20147;-60
2021/04/24 06:10:05;;;;;;;5.75;3.53;;;9.40;99.90;;;;;;4377602;32;20460;-61
2021/04/24 06:12:31;;;;;;;4.80;3.30;;;9.30;99.90;;;;;;4365474;32;20086;-60
2021/04/24 06:14:58;;;;;;;25.85;6.45;;;9.10;99.90;;;;;;4365407;32;20178;-61
2021/04/24 06:17:25;;;;;;;4.55;3.12;;;9.20;99.90;;;;;;4374908;32;20603;-60
2021/04/24 06:19:51;;;;;;;5.60;3.30;;;9.30;99.90;;;;;;4363326;32;20211;-61
2021/04/24 06:22:18;;;;;;;6.07;3.75;;;9.30;99.90;;;;;;4350357;32;20159;-60
2021/04/24 06:24:44;;;;;;;8.20;4.97;;;9.30;99.90;;;;;;4351184;32;20490;-61
2021/04/24 06:27:11;;;;;;;7.90;4.47;;;9.30;99.90;;;;;;4350153;32;20077;-61
2021/04/24 06:29:37;;;;;;;5.55;4.22;;;9.40;99.90;;;;;;4363184;32;20142;-62
2021/04/24 06:32:04;;;;;;;6.05;4.12;;;9.50;99.90;;;;;;4367545;32;20585;-62
2021/04/24 06:34:30;;;;;;;7.47;4.85;;;9.50;99.90;;;;;;4339995;32;20088;-65
2021/04/24 06:36:56;;;;;;;8.65;4.97;;;9.70;99.90;;;;;;4365697;32;20073;-61
2021/04/24 06:39:23;;;;;;;6.40;5.07;;;9.40;99.90;;;;;;4376898;32;20065;-63
2021/04/24 06:41:49;;;;;;;7.60;4.45;;;9.30;99.90;;;;;;4349900;32;20054;-61
2021/04/24 06:44:16;;;;;;;5.30;3.80;;;9.50;99.90;;;;;;4374461;32;20062;-63
2021/04/24 06:46:43;;;;;;;6.65;4.75;;;9.60;99.90;;;;;;4350027;32;20085;-60
2021/04/24 06:49:11;;;;;;;8.35;5.03;;;9.50;99.90;;;;;;4350153;32;20089;-60
2021/04/24 06:51:38;;;;;;;6.60;4.28;;;9.50;99.90;;;;;;4362456;32;20078;-59
2021/04/24 06:54:04;;;;;;;6.20;4.90;;;9.40;99.90;;;;;;4349653;32;20500;-60
2021/04/24 06:56:31;;;;;;;12.73;5.47;;;9.60;99.90;;;;;;4338099;32;20158;-60
2021/04/24 06:58:57;;;;;;;12.15;4.78;;;9.60;99.90;;;;;;4364392;32;20077;-60
2021/04/24 07:01:24;;;;;;;7.57;4.82;;;9.60;99.90;;;;;;4389818;32;20081;-62
2021/04/24 07:03:50;;;;;;;7.55;5.30;;;9.80;99.90;;;;;;4377413;32;20233;-59
2021/04/24 07:06:16;;;;;;;8.15;5.20;;;9.80;99.90;;;;;;4378286;32;20519;-61
2021/04/24 07:08:42;;;;;;;8.88;5.68;;;9.50;99.90;;;;;;4393029;32;20436;-61
2021/04/24 07:11:09;;;;;;;10.45;4.70;;;9.30;99.90;;;;;;4404614;32;20074;-62
2021/04/24 07:13:38;;;;;;;13.15;5.28;;;9.40;99.90;;;;;;4380448;32;20081;-63
2021/04/24 07:16:06;;;;;;;15.38;5.80;;;9.40;99.90;;;;;;4380801;32;20495;-60
2021/04/24 07:18:33;;;;;;;14.05;5.00;;;9.20;99.90;;;;;;4380864;32;20166;-62
2021/04/24 07:20:59;;;;;;;11.20;5.55;;;9.20;99.90;;;;;;4355516;32;20605;-62
2021/04/24 07:23:26;;;;;;;12.73;5.37;;;9.20;99.90;;;;;;4394122;32;20467;-60
2021/04/24 07:25:52;;;;;;;7.60;4.85;;;9.20;99.90;;;;;;4380396;32;20150;-60
2021/04/24 07:28:18;;;;;;;6.35;4.60;;;9.10;99.90;;;;;;4380585;32;20082;-61
2021/04/24 07:30:44;;;;;;;8.85;4.85;;;9.00;99.90;;;;;;4392879;32;20090;-60
2021/04/24 07:33:10;;;;;;;9.40;4.80;;;9.10;99.90;;;;;;4380711;32;20066;-61
2021/04/24 07:35:37;;;;;;;10.68;5.60;;;9.10;99.90;;;;;;4379960;32;20065;-60
2021/04/24 07:38:03;;;;;;;11.10;5.05;;;9.30;99.90;;;;;;4392449;32;20077;-61
2021/04/24 07:40:30;;;;;;;12.45;5.75;;;9.40;99.90;;;;;;4367472;32;20169;-61
2021/04/24 07:42:56;;;;;;;9.07;5.15;;;9.50;99.90;;;;;;4367495;32;20066;-61
2021/04/24 07:45:22;;;;;;;10.00;4.78;;;9.40;99.90;;;;;;4379260;32;20150;-60
2021/04/24 07:47:48;;;;;;;6.55;4.28;;;9.50;99.90;;;;;;4392065;32;20066;-60
2021/04/24 07:50:18;;;;;;;11.02;5.65;;;9.60;99.90;;;;;;4366611;32;20077;-61
2021/04/24 07:52:45;;;;;;;10.65;5.97;;;9.70;99.90;;;;;;4380738;32;20092;-61
2021/04/24 07:55:12;;;;;;;8.57;5.80;;;9.60;99.90;;;;;;4379139;32;20068;-61
2021/04/24 07:57:38;;;;;;;10.80;5.90;;;9.60;99.90;;;;;;4379495;32;20065;-60
2021/04/24 08:00:07;;;;;;;10.45;5.85;;;9.70;99.90;;;;;;4392191;32;20076;-61
2021/04/24 08:02:33;;;;;;;11.80;7.22;;;9.50;99.90;;;;;;4392284;32;20067;-60
2021/04/24 08:04:59;;;;;;;11.30;6.87;;;9.60;99.90;;;;;;4379480;32;20256;-60
2021/04/24 08:07:26;;;;;;;11.00;6.87;;;9.60;99.90;;;;;;4379695;32;20093;-61
2021/04/24 08:09:52;;;;;;;15.18;6.82;;;9.60;99.90;;;;;;4379709;32;20177;-62
2021/04/24 08:12:19;;;;;;;9.35;6.22;;;9.80;99.90;;;;;;4380248;32;20472;-60
2021/04/24 08:14:45;;;;;;;8.82;6.07;;;10.20;99.90;;;;;;4368999;32;20142;-61
2021/04/24 08:17:13;;;;;;;9.85;6.30;;;10.50;99.90;;;;;;4377923;32;20072;-61
2021/04/24 08:19:40;;;;;;;9.65;6.43;;;10.50;99.90;;;;;;4352270;32;20062;-62
2021/04/24 08:22:07;;;;;;;13.10;6.65;;;10.60;99.90;;;;;;4364761;32;20074;-62
2021/04/24 08:24:34;;;;;;;13.35;7.10;;;10.60;99.90;;;;;;4364405;32;20077;-60
2021/04/24 08:27:00;;;;;;;11.20;8.25;;;10.50;99.90;;;;;;4364394;32;20489;-62
2021/04/24 08:29:26;;;;;;;19.65;7.45;;;10.70;99.90;;;;;;4351881;32;20082;-60
2021/04/24 08:31:53;;;;;;;9.80;7.10;;;11.00;99.90;;;;;;4351506;32;20158;-61
2021/04/24 08:34:21;;;;;;;12.52;7.22;;;10.90;99.90;;;;;;4364053;32;20073;-61
2021/04/24 08:36:48;;;;;;;12.45;7.22;;;11.00;99.90;;;;;;4364832;32;20074;-60
2021/04/24 08:39:15;;;;;;;14.13;8.35;;;11.50;99.90;;;;;;4364369;32;20513;-61
2021/04/24 08:41:42;;;;;;;14.95;7.40;;;11.30;99.90;;;;;;4351817;32;20172;-60
2021/04/24 08:44:08;;;;;;;13.77;7.22;;;11.50;99.90;;;;;;4351763;32;20085;-61
2021/04/24 08:46:34;;;;;;;10.38;7.00;;;11.30;99.90;;;;;;4351971;32;20071;-61
2021/04/24 08:49:01;;;;;;;11.88;6.57;;;10.80;99.90;;;;;;4363901;32;20074;-61
2021/04/24 08:51:29;;;;;;;9.02;6.07;;;10.80;99.90;;;;;;4364353;32;20069;-62
2021/04/24 08:53:57;;;;;;;8.18;5.32;;;11.00;99.90;;;;;;4364792;32;20512;-62
2021/04/24 08:56:25;;;;;;;10.43;5.07;;;10.80;99.90;;;;;;4364899;32;20562;-62
2021/04/24 08:58:52;;;;;;;7.47;5.37;;;10.70;99.90;;;;;;4363584;32;20161;-60
2021/04/24 09:01:19;;;;;;;11.10;5.07;;;10.60;99.90;;;;;;4377011;32;20062;-60
2021/04/24 09:03:45;;;;;;;10.57;5.30;;;10.60;99.90;;;;;;4352170;32;20137;-61
2021/04/24 09:06:11;;;;;;;6.95;5.00;;;10.60;99.90;;;;;;4363873;32;20512;-60
2021/04/24 09:08:38;;;;;;;9.73;5.45;;;10.70;99.90;;;;;;4363701;32;20114;-61
2021/04/24 09:11:06;;;;;;;10.80;5.62;;;10.70;99.90;;;;;;4376342;32;20431;-60
2021/04/24 09:13:33;;;;;;;9.25;5.10;;;10.50;99.90;;;;;;4343437;32;20488;-60
2021/04/24 09:16:00;;;;;;;6.82;5.03;;;10.40;99.90;;;;;;4367342;32;20077;-61
2021/04/24 09:18:28;;;;;;;11.55;5.05;;;10.50;99.90;;;;;;4366376;32;20467;-60
2021/04/24 09:21:00;;;;;;;7.93;4.97;;;10.60;99.90;;;;;;4368186;32;20496;-60
2021/04/24 09:23:31;;;;;;;9.38;4.37;;;10.70;99.90;;;;;;4379966;32;20159;-60
2021/04/24 09:26:09;;;;;;;7.25;3.35;;;10.50;99.90;;;;;;4379092;32;20058;-60
2021/04/24 09:28:44;;;;;;;6.12;3.95;;;10.60;99.90;;;;;;4378559;32;20062;-61
2021/04/24 09:31:11;;;;;;;4.90;2.42;;;10.30;99.90;;;;;;4378627;32;20449;-62
2021/04/24 09:33:38;;;;;;;5.18;2.78;;;10.40;99.90;;;;;;4366855;32;20097;-61
2021/04/24 09:36:07;;;;;;;4.82;2.85;;;10.60;99.90;;;;;;4366724;32;20104;-60
2021/04/24 09:38:38;;;;;;;3.70;2.60;;;10.40;99.90;;;;;;4378914;32;20096;-61
2021/04/24 09:41:11;;;;;;;4.00;2.50;;;10.80;99.90;;;;;;4390700;32;20512;-61
2021/04/24 09:44:04;;;;;;;5.35;2.62;;;10.90;99.90;;;;;;4378445;32;20445;-62
2021/04/24 09:46:50;;;;;;;4.87;2.75;;;10.80;99.90;;;;;;4390575;32;20146;-60
2021/04/24 09:49:29;;;;;;;6.05;3.58;;;11.00;99.90;;;;;;4366423;32;20077;-60
2021/04/24 09:52:04;;;;;;;5.72;3.15;;;11.10;99.90;;;;;;4378100;32;20090;-63
2021/04/24 09:54:34;;;;;;;5.07;3.00;;;11.60;99.90;;;;;;4379303;32;20152;-63
2021/04/24 09:57:08;;;;;;;10.98;4.18;;;11.70;99.90;;;;;;4377860;32;20501;-60
2021/04/24 10:00:14;;;;;;;6.70;3.55;;;11.50;99.90;;;;;;4366031;32;20165;-62
2021/04/24 10:02:45;;;;;;;6.45;3.92;;;11.40;99.90;;;;;;4377894;32;20101;-61
2021/04/24 10:05:16;;;;;;;7.20;4.50;;;11.90;99.90;;;;;;4378246;32;20073;-60
2021/04/24 10:07:45;;;;;;;7.95;5.57;;;12.30;99.90;;;;;;4353453;32;20081;-61
2021/04/24 10:10:32;;;;;;;7.65;5.45;;;11.50;99.90;;;;;;4353395;32;20101;-61
2021/04/24 10:13:01;;;;;;;9.20;5.12;;;11.30;99.90;;;;;;4365343;32;20123;-60
2021/04/24 10:15:39;;;;;;;8.93;4.78;;;11.40;99.90;;;;;;4351722;32;20078;-61
2021/04/24 10:18:08;;;;;;;9.27;4.95;;;11.50;99.90;;;;;;4338728;32;20055;-61
2021/04/24 10:20:35;;;;;;;9.02;5.35;;;11.80;99.90;;;;;;4350944;32;20066;-62
2021/04/24 10:23:03;;;;;;;7.28;4.85;;;11.60;99.90;;;;;;4350459;32;20073;-61
2021/04/24 10:25:29;;;;;;;10.63;4.85;;;11.90;99.90;;;;;;4350556;32;20093;-60
2021/04/24 10:27:56;;;;;;;9.88;4.47;;;11.80;99.90;;;;;;4326524;32;20075;-60
2021/04/24 10:30:23;;;;;;;7.75;5.07;;;11.60;99.90;;;;;;4350914;32;20505;-60
2021/04/24 10:32:51;;;;;;;7.55;4.82;;;11.40;99.90;;;;;;4355844;32;20094;-59
2021/04/24 10:35:17;;;;;;;9.38;5.72;;;11.30;99.90;;;;;;4359150;32;20070;-59
2021/04/24 10:37:51;;;;;;;8.35;5.82;;;11.00;99.90;;;;;;4387893;32;20070;-60
2021/04/24 10:40:18;;;;;;;12.30;7.72;;;10.80;99.90;;;;;;4363291;32;20485;-60
2021/04/24 10:42:49;;;;;;;12.43;7.85;;;10.90;99.90;;;;;;4350646;32;20072;-60
2021/04/24 10:45:33;;;;;;;12.10;8.02;;;10.90;99.90;;;;;;4362423;32;20565;-60
2021/04/24 10:48:00;;;;;;;16.00;8.68;;;10.90;99.90;;;;;;4374996;32;20097;-60
2021/04/24 10:50:38;;;;;;;13.10;8.45;;;10.90;99.90;;;;;;4386904;32;20058;-60
2021/04/24 10:53:28;;;;;;;14.98;8.80;;;10.80;99.90;;;;;;4376643;32;20538;-61
2021/04/24 10:55:56;;;;;;;12.85;8.77;;;11.10;99.90;;;;;;4362448;32;20078;-60
2021/04/24 10:58:24;;;;;;;14.45;8.23;;;10.90;99.90;;;;;;4362512;32;20086;-60
2021/04/24 11:00:53;;;;;;;11.63;8.63;;;11.00;99.90;;;;;;4377487;32;20078;-60
2021/04/24 11:03:44;;;;;;;16.20;9.38;;;11.00;99.90;;;;;;4377195;32;20088;-60
2021/04/24 11:06:22;;;;;;;16.02;9.35;;;11.20;99.90;;;;;;4389903;32;20066;-60
2021/04/24 11:09:08;;;;;;;16.67;10.27;;;11.30;99.90;;;;;;4377608;32;20077;-61
2021/04/24 11:11:35;;;;;;;15.85;9.57;;;10.90;99.90;;;;;;4390145;32;20093;-60
2021/04/24 11:14:02;;;;;;;17.48;10.35;;;10.90;99.90;;;;;;4371328;32;20090;-60
2021/04/24 11:16:31;;;;;;;29.20;15.85;;;11.20;99.90;;;;;;4338178;32;20078;-59
2021/04/24 11:18:58;;;;;;;19.75;11.27;;;11.20;99.90;;;;;;4362465;32;20057;-59
2021/04/24 11:21:25;;;;;;;26.02;13.80;;;10.90;99.90;;;;;;4362094;32;20063;-59
2021/04/24 11:24:07;;;;;;;33.33;17.02;;;11.00;99.90;;;;;;4362750;32;20084;-59
2021/04/24 11:26:33;;;;;;;15.38;9.32;;;10.90;99.90;;;;;;4362318;32;20512;-60
2021/04/24 11:29:01;;;;;;;17.52;11.85;;;10.70;99.90;;;;;;4374447;32;20078;-60
2021/04/24 11:31:55;;;;;;;12.23;8.85;;;10.90;99.90;;;;;;4362764;32;20155;-61
2021/04/24 11:34:30;;;;;;;11.98;7.93;;;11.00;99.90;;;;;;4362458;32;20078;-61
2021/04/24 11:37:26;;;;;;;15.07;7.85;;;10.90;99.90;;;;;;4363315;32;20070;-59
2021/04/24 11:40:32;;;;;;;13.73;8.65;;;10.80;99.90;;;;;;4368527;32;20074;-60
2021/04/24 11:43:06;;;;;;;14.38;8.88;;;10.80;99.90;;;;;;4371880;32;20457;-61
2021/04/24 11:45:58;;;;;;;13.62;9.23;;;10.80;99.90;;;;;;4361961;32;20142;-59
2021/04/24 11:49:15;;;;;;;15.00;8.93;;;10.80;99.90;;;;;;4350127;32;20094;-61
2021/04/24 11:51:54;;;;;;;15.25;8.80;;;10.80;99.90;;;;;;4356685;32;20141;-61
2021/04/24 11:54:37;;;;;;;17.40;9.65;;;10.90;99.90;;;;;;4379222;32;20070;-60
2021/04/24 11:57:18;;;;;;;15.93;9.00;;;11.00;99.90;;;;;;4356398;32;20073;-60
2021/04/24 11:59:44;;;;;;;16.70;8.50;;;11.10;99.90;;;;;;4379872;32;20153;-59
2021/04/24 12:02:17;;;;;;;15.50;9.00;;;11.20;99.90;;;;;;4380122;32;20050;-61
2021/04/24 12:04:45;;;;;;;12.50;8.45;;;11.30;99.90;;;;;;4393127;32;20234;-60
2021/04/24 12:07:18;;;;;;;18.17;9.65;;;11.30;99.90;;;;;;4387164;32;20137;-60
2021/04/24 12:10:02;;;;;;;16.37;8.95;;;11.30;99.90;;;;;;4397736;32;20072;-59
2021/04/24 12:12:33;;;;;;;14.63;9.45;;;11.10;99.90;;;;;;4381554;32;20503;-61
2021/04/24 12:15:23;;;;;;;14.63;9.65;;;11.10;99.90;;;;;;4392379;32;20069;-61
2021/04/24 12:18:00;;;;;;;14.93;9.70;;;11.10;99.90;;;;;;4353024;32;20075;-59
2021/04/24 12:20:37;;;;;;;14.95;9.30;;;11.30;99.90;;;;;;4364926;32;20149;-61
2021/04/24 12:23:09;;;;;;;16.02;8.65;;;11.50;99.90;;;;;;4365020;32;20077;-60
2021/04/24 12:25:37;;;;;;;12.60;7.35;;;11.70;99.90;;;;;;4365518;32;20078;-61
2021/04/24 12:28:07;;;;;;;11.95;7.28;;;11.60;99.90;;;;;;4340190;32;20075;-60
2021/04/24 12:30:39;;;;;;;12.82;7.72;;;11.60;99.90;;;;;;4364676;32;20120;-61
2021/04/24 12:33:13;;;;;;;7.53;5.30;;;11.80;99.90;;;;;;4352331;32;20607;-60
2021/04/24 12:35:47;;;;;;;4.90;3.42;;;11.80;99.90;;;;;;4364653;32;20532;-61
2021/04/24 12:38:20;;;;;;;4.53;2.90;;;11.60;99.90;;;;;;4365179;32;20073;-61
2021/04/24 12:40:51;;;;;;;5.60;3.33;;;11.60;99.90;;;;;;4378002;32;20159;-61
2021/04/24 12:43:26;;;;;;;4.37;3.35;;;11.60;99.90;;;;;;4365045;32;20069;-60
2021/04/24 12:46:05;;;;;;;4.95;3.37;;;11.50;99.90;;;;;;4364220;32;20179;-60
2021/04/24 12:48:58;;;;;;;5.62;3.40;;;11.70;99.90;;;;;;4340931;32;20085;-60
2021/04/24 12:51:24;;;;;;;6.97;3.80;;;11.60;99.90;;;;;;4349133;32;20171;-60
2021/04/24 12:53:52;;;;;;;5.70;3.28;;;11.70;99.90;;;;;;4363955;32;20072;-60
2021/04/24 12:56:31;;;;;;;4.50;3.10;;;11.50;99.90;;;;;;4377769;32;20074;-60
2021/04/24 12:59:03;;;;;;;5.57;3.10;;;11.40;99.90;;;;;;4366843;32;20070;-60
2021/04/24 13:01:29;;;;;;;5.45;3.40;;;11.40;99.90;;;;;;4391529;32;20085;-60